createdAt,value
2022-08-20T00:02:54.498Z,18.56
2022-08-20T00:07:57.588Z,18.33
2022-08-20T00:13:01.169Z,18.37
2022-08-20T00:18:05.584Z,18.34
2022-08-20T00:23:10.612Z,18.24
2022-08-20T00:28:14.458Z,18.11
2022-08-20T00:33:20.350Z,18.15
2022-08-20T00:38:24.212Z,18.10
2022-08-20T00:43:51.922Z,18.06
2022-08-20T00:48:56.258Z,17.97
2022-08-20T00:54:07.204Z,17.95
2022-08-20T00:59:15.133Z,17.88
2022-08-20T01:04:18.249Z,17.69
2022-08-20T01:09:50.131Z,17.77
2022-08-20T01:14:46.957Z,17.71
2022-08-20T01:19:55.697Z,17.66
2022-08-20T01:25:17.549Z,17.62
2022-08-20T01:30:20.149Z,17.49
2022-08-20T01:35:24.336Z,17.44
2022-08-20T01:40:48.228Z,17.45
2022-08-20T01:45:52.992Z,17.33
2022-08-20T01:51:06.397Z,17.32
2022-08-20T01:56:14.354Z,17.27
2022-08-20T02:01:45.869Z,17.23
2022-08-20T02:06:57.946Z,16.94
2022-08-20T02:12:03.048Z,17.16
2022-08-20T02:17:07.267Z,16.99
2022-08-20T02:22:38.069Z,17.46
2022-08-20T02:27:43.271Z,17.67
2022-08-20T02:32:47.439Z,17.41
2022-08-20T02:37:51.296Z,18.84
2022-08-20T02:42:54.950Z,21.08
2022-08-20T02:47:59.142Z,22.48
2022-08-20T02:53:02.023Z,21.45
2022-08-20T02:58:04.841Z,20.74
2022-08-20T03:03:10.541Z,20.23
2022-08-20T03:08:14.907Z,19.84
2022-08-20T03:13:19.789Z,20.03
2022-08-20T03:18:25.526Z,20.04
2022-08-20T03:23:28.352Z,19.97
2022-08-20T03:28:31.210Z,20.45
2022-08-20T03:33:34.091Z,20.55
2022-08-20T03:38:37.075Z,20.25
2022-08-20T03:43:41.148Z,20.30
2022-08-20T03:48:43.817Z,19.99
2022-08-20T03:53:46.793Z,19.86
2022-08-20T03:58:49.660Z,19.87
2022-08-20T04:03:55.226Z,20.02
2022-08-20T04:08:58.150Z,19.78
2022-08-20T04:14:00.821Z,19.40
2022-08-20T04:19:05.206Z,19.40
2022-08-20T04:24:07.951Z,19.49
2022-08-20T04:29:32.422Z,19.45
2022-08-20T04:34:35.990Z,19.27
2022-08-20T04:39:38.674Z,19.25
2022-08-20T04:44:41.368Z,19.44
2022-08-20T04:49:45.338Z,20.01
2022-08-20T04:54:48.087Z,20.45
2022-08-20T04:59:56.559Z,20.83
2022-08-20T05:05:02.097Z,21.13
2022-08-20T05:10:06.571Z,21.05
2022-08-20T05:15:13.644Z,21.04
2022-08-20T05:20:19.266Z,21.42
2022-08-20T05:25:22.305Z,20.84
2022-08-20T05:30:25.013Z,20.79
2022-08-20T05:35:29.004Z,20.46
2022-08-20T05:40:32.416Z,20.63
2022-08-20T05:45:37.914Z,20.85
2022-08-20T05:50:43.205Z,20.76
2022-08-20T05:55:46.512Z,20.57
2022-08-20T06:00:51.901Z,20.57
2022-08-20T06:05:54.591Z,20.47
2022-08-20T06:10:57.389Z,20.54
2022-08-20T06:16:01.749Z,20.61
2022-08-20T06:21:09.654Z,20.45
2022-08-20T06:26:12.375Z,20.10
2022-08-20T06:31:15.320Z,20.36
2022-08-20T06:36:19.024Z,20.64
2022-08-20T06:41:22.055Z,20.71
2022-08-20T06:46:24.882Z,20.84
2022-08-20T06:51:27.791Z,21.21
2022-08-20T06:56:30.415Z,21.40
2022-08-20T07:01:33.114Z,21.41
2022-08-20T07:06:36.767Z,21.27
2022-08-20T07:11:39.380Z,21.28
2022-08-20T07:16:42.526Z,21.22
2022-08-20T07:21:45.121Z,21.09
2022-08-20T07:26:49.465Z,21.20
2022-08-20T07:32:10.863Z,21.48
2022-08-20T07:37:13.938Z,21.46
2022-08-20T07:42:17.207Z,21.36
2022-08-20T07:47:19.917Z,20.90
2022-08-20T07:52:22.892Z,20.77
2022-08-20T07:57:25.757Z,20.57
2022-08-20T08:02:28.786Z,20.81
2022-08-20T08:07:32.688Z,21.15
2022-08-20T08:12:43.385Z,21.87
2022-08-20T08:17:48.834Z,22.06
2022-08-20T08:22:52.726Z,22.13
2022-08-20T08:27:55.416Z,22.67
2022-08-20T08:33:16.804Z,22.45
2022-08-20T08:38:19.609Z,22.43
2022-08-20T08:43:31.652Z,22.34
2022-08-20T08:48:38.657Z,22.27
2022-08-20T08:53:56.986Z,21.92
2022-08-20T08:59:06.200Z,21.61
2022-08-20T09:04:09.710Z,21.23
2022-08-20T09:09:26.123Z,21.24
2022-08-20T09:14:28.787Z,20.89
2022-08-20T09:19:32.096Z,20.48
2022-08-20T09:24:34.754Z,20.13
2022-08-20T09:29:37.606Z,20.01
2022-08-20T09:34:43.706Z,19.95
2022-08-20T09:39:47.809Z,19.87
2022-08-20T09:44:51.084Z,19.44
2022-08-20T09:49:54.637Z,19.13
2022-08-20T09:55:01.792Z,19.01
2022-08-20T10:00:09.469Z,18.99
2022-08-20T10:05:14.989Z,18.89
2022-08-20T10:10:18.052Z,18.92
2022-08-20T10:15:20.890Z,18.67
2022-08-20T10:20:24.892Z,18.29
2022-08-20T10:25:28.920Z,18.41
2022-08-20T10:30:31.687Z,18.25
2022-08-20T10:35:34.313Z,18.31
2022-08-20T10:40:37.018Z,18.36
2022-08-20T10:45:40.379Z,18.31
2022-08-20T10:50:43.293Z,18.47
2022-08-20T10:55:46.488Z,18.48
2022-08-20T11:00:49.265Z,18.82
2022-08-20T11:05:51.981Z,18.72
2022-08-20T11:10:55.033Z,18.68
2022-08-20T11:15:57.918Z,18.35
2022-08-20T11:21:01.543Z,18.52
2022-08-20T11:26:04.270Z,18.65
2022-08-20T11:31:06.958Z,18.87
2022-08-20T11:36:09.869Z,19.17
2022-08-20T11:41:12.525Z,19.43
2022-08-20T11:46:15.493Z,19.62
2022-08-20T11:51:18.129Z,19.81
2022-08-20T11:56:21.823Z,19.82
2022-08-20T12:01:24.594Z,19.83
2022-08-20T12:06:27.297Z,20.04
2022-08-20T12:11:30.191Z,20.11
2022-08-20T12:16:32.870Z,19.95
2022-08-20T12:21:35.671Z,20.07
2022-08-20T12:26:38.491Z,20.00
2022-08-20T12:31:41.138Z,20.29
2022-08-20T12:36:43.736Z,20.60
2022-08-20T12:41:46.559Z,20.71
2022-08-20T12:46:49.226Z,20.60
2022-08-20T12:51:51.928Z,20.46
2022-08-20T12:56:54.839Z,20.41
2022-08-20T13:01:58.242Z,20.34
2022-08-20T13:07:16.776Z,20.26
2022-08-20T13:12:20.817Z,20.53
2022-08-20T13:17:38.101Z,20.72
2022-08-20T13:22:42.354Z,20.71
2022-08-20T13:27:45.105Z,20.78
2022-08-20T13:32:47.921Z,20.90
2022-08-20T13:37:51.161Z,20.87
2022-08-20T13:42:53.990Z,20.83
2022-08-20T13:47:56.901Z,20.92
2022-08-20T13:52:59.713Z,21.05
2022-08-20T13:58:06.794Z,21.11
2022-08-20T14:03:09.481Z,20.93
2022-08-20T14:08:20.865Z,20.92
2022-08-20T14:13:26.284Z,20.79
2022-08-20T14:18:29.042Z,20.81
2022-08-20T14:23:31.685Z,20.77
2022-08-20T14:28:39.634Z,20.51
2022-08-20T14:33:44.711Z,20.63
2022-08-20T14:38:47.516Z,20.71
2022-08-20T14:43:50.176Z,20.83
2022-08-20T14:48:53.511Z,20.78
2022-08-20T14:53:56.530Z,20.75
2022-08-20T14:58:59.381Z,20.87
2022-08-20T15:04:02.065Z,20.79
2022-08-20T15:09:04.667Z,20.89
2022-08-20T15:14:08.715Z,20.92
2022-08-20T15:19:11.637Z,20.90
2022-08-20T15:24:18.818Z,20.87
2022-08-20T15:29:22.978Z,20.91
2022-08-20T15:34:26.042Z,20.96
2022-08-20T15:39:28.681Z,21.00
2022-08-20T15:44:31.443Z,21.00
2022-08-20T15:49:34.335Z,20.95
2022-08-20T15:54:37.553Z,20.97
2022-08-20T15:59:55.493Z,21.05
2022-08-20T16:05:36.999Z,20.98
2022-08-20T16:10:58.690Z,20.94
2022-08-20T16:16:03.435Z,20.85
2022-08-20T16:21:10.720Z,20.85
2022-08-20T16:26:31.276Z,20.78
2022-08-20T16:32:04.369Z,20.75
2022-08-20T16:37:38.566Z,20.54
2022-08-20T16:42:45.826Z,20.53
2022-08-20T16:47:50.959Z,20.52
2022-08-20T16:52:53.727Z,20.57
2022-08-20T16:57:56.782Z,20.54
2022-08-20T17:03:31.441Z,20.53
2022-08-20T17:08:48.415Z,20.51
2022-08-20T17:14:04.509Z,20.27
2022-08-20T17:19:10.954Z,20.45
2022-08-20T17:24:33.954Z,20.33
2022-08-20T17:29:52.594Z,20.36
2022-08-20T17:34:58.166Z,20.29
2022-08-20T17:40:16.150Z,20.39
2022-08-20T17:45:25.108Z,20.34
2022-08-20T17:50:32.572Z,20.34
2022-08-20T17:55:36.744Z,20.35
2022-08-20T18:00:39.848Z,20.33
2022-08-20T18:05:44.122Z,20.34
2022-08-20T18:10:56.961Z,20.39
2022-08-20T18:16:01.755Z,20.30
2022-08-20T18:21:32.199Z,20.39
2022-08-20T18:26:41.160Z,20.34
2022-08-20T18:31:49.882Z,20.36
2022-08-20T18:37:00.909Z,20.30
2022-08-20T18:42:22.299Z,20.25
2022-08-20T18:47:33.640Z,20.22
2022-08-20T18:52:41.651Z,20.22
2022-08-20T18:57:57.415Z,19.98
2022-08-20T19:03:14.199Z,20.07
2022-08-20T19:08:21.124Z,19.99
2022-08-20T19:13:40.087Z,19.96
2022-08-20T19:18:48.170Z,19.80
2022-08-20T19:23:56.206Z,19.84
2022-08-20T19:29:10.832Z,19.66
2022-08-20T19:34:22.155Z,19.70
2022-08-20T19:39:26.123Z,19.59
2022-08-20T19:44:36.609Z,19.57
2022-08-20T19:49:57.396Z,19.56
2022-08-20T19:55:03.893Z,19.48
2022-08-20T20:00:12.927Z,19.44
2022-08-20T20:05:17.192Z,19.40
2022-08-20T20:10:33.076Z,19.24
2022-08-20T20:15:37.970Z,19.35
2022-08-20T20:20:57.676Z,19.18
2022-08-20T20:26:04.479Z,19.25
2022-08-20T20:31:10.025Z,19.19
2022-08-20T20:36:18.284Z,19.14
2022-08-20T20:41:26.005Z,19.13
2022-08-20T20:46:30.989Z,19.16
2022-08-20T20:51:39.115Z,19.15
2022-08-20T20:56:43.577Z,19.15
2022-08-20T21:01:49.182Z,18.97
2022-08-20T21:06:56.834Z,19.10
2022-08-20T21:11:59.614Z,19.08
2022-08-20T21:17:05.848Z,19.05
2022-08-20T21:22:09.311Z,19.02
2022-08-20T21:27:13.034Z,18.95
2022-08-20T21:32:17.593Z,18.89
2022-08-20T21:37:20.364Z,18.82
2022-08-20T21:42:29.225Z,18.81
2022-08-20T21:47:32.600Z,18.80
2022-08-20T21:52:36.007Z,18.81
2022-08-20T21:57:39.045Z,18.77
2022-08-20T22:02:41.701Z,18.96
2022-08-20T22:07:44.859Z,18.91
2022-08-20T22:12:47.508Z,18.77
2022-08-20T22:17:50.133Z,18.81
2022-08-20T22:22:52.814Z,18.68
2022-08-20T22:27:55.512Z,18.88
2022-08-20T22:33:03.176Z,18.90
2022-08-20T22:38:06.109Z,18.82
2022-08-20T22:43:09.507Z,18.81
2022-08-20T22:48:16.485Z,18.87
2022-08-20T22:53:22.096Z,18.85
2022-08-20T22:58:31.159Z,18.84
2022-08-20T23:03:40.269Z,18.79
2022-08-20T23:08:45.157Z,18.65
2022-08-20T23:13:47.814Z,18.75
2022-08-20T23:18:50.676Z,18.46
2022-08-20T23:23:53.455Z,18.45
2022-08-20T23:28:56.263Z,18.51
2022-08-20T23:33:58.853Z,18.66
2022-08-20T23:39:01.628Z,18.42
2022-08-20T23:44:25.407Z,18.40
2022-08-20T23:49:31.737Z,18.30
2022-08-20T23:54:34.399Z,18.22
2022-08-20T23:59:37.148Z,18.20
